sensor_id;sensor_type;location;lat;lon;timestamp;P1;durP1;ratioP1;P2;durP2;ratioP2
65230;SDS011;51813;40.666;16.602;2022-11-23T00:00:35;0.80;;;0.73;;
65230;SDS011;51813;40.666;16.602;2022-11-23T00:03:01;0.70;;;0.30;;
65230;SDS011;51813;40.666;16.602;2022-11-23T00:05:27;1.23;;;0.40;;
65230;SDS011;51813;40.666;16.602;2022-11-23T00:07:53;1.48;;;0.40;;
65230;SDS011;51813;40.666;16.602;2022-11-23T00:10:19;1.02;;;0.30;;
65230;SDS011;51813;40.666;16.602;2022-11-23T00:12:45;1.20;;;0.50;;
65230;SDS011;51813;40.666;16.602;2022-11-23T00:15:12;0.47;;;0.20;;
65230;SDS011;51813;40.666;16.602;2022-11-23T00:17:38;1.27;;;0.40;;
65230;SDS011;51813;40.666;16.602;2022-11-23T00:20:05;0.50;;;0.30;;
65230;SDS011;51813;40.666;16.602;2022-11-23T00:22:32;0.40;;;0.20;;
65230;SDS011;51813;40.666;16.602;2022-11-23T00:24:58;1.10;;;0.35;;
65230;SDS011;51813;40.666;16.602;2022-11-23T00:27:23;0.30;;;0.20;;
65230;SDS011;51813;40.666;16.602;2022-11-23T00:29:49;1.20;;;0.40;;
65230;SDS011;51813;40.666;16.602;2022-11-23T00:32:15;1.15;;;0.40;;
65230;SDS011;51813;40.666;16.602;2022-11-23T00:34:40;1.45;;;0.43;;
65230;SDS011;51813;40.666;16.602;2022-11-23T00:37:06;0.85;;;0.28;;
65230;SDS011;51813;40.666;16.602;2022-11-23T00:39:32;1.25;;;0.30;;
65230;SDS011;51813;40.666;16.602;2022-11-23T00:41:58;0.75;;;0.30;;
65230;SDS011;51813;40.666;16.602;2022-11-23T00:44:23;0.75;;;0.30;;
65230;SDS011;51813;40.666;16.602;2022-11-23T00:46:49;1.25;;;0.40;;
65230;SDS011;51813;40.666;16.602;2022-11-23T00:49:15;1.17;;;0.40;;
65230;SDS011;51813;40.666;16.602;2022-11-23T00:51:40;0.75;;;0.22;;
65230;SDS011;51813;40.666;16.602;2022-11-23T00:54:06;0.52;;;0.20;;
65230;SDS011;51813;40.666;16.602;2022-11-23T00:56:32;0.93;;;0.35;;
65230;SDS011;51813;40.666;16.602;2022-11-23T00:58:59;1.83;;;0.40;;
65230;SDS011;51813;40.666;16.602;2022-11-23T01:01:28;0.68;;;0.20;;
65230;SDS011;51813;40.666;16.602;2022-11-23T01:03:58;0.73;;;0.40;;
65230;SDS011;51813;40.666;16.602;2022-11-23T01:06:26;0.85;;;0.30;;
65230;SDS011;51813;40.666;16.602;2022-11-23T01:08:54;0.40;;;0.20;;
65230;SDS011;51813;40.666;16.602;2022-11-23T01:11:22;1.88;;;0.20;;
65230;SDS011;51813;40.666;16.602;2022-11-23T01:13:50;1.10;;;0.35;;
65230;SDS011;51813;40.666;16.602;2022-11-23T01:16:17;0.25;;;0.20;;
65230;SDS011;51813;40.666;16.602;2022-11-23T01:18:55;0.80;;;0.20;;
65230;SDS011;51813;40.666;16.602;2022-11-23T01:21:29;0.57;;;0.20;;
65230;SDS011;51813;40.666;16.602;2022-11-23T01:23:56;0.13;;;0.10;;
65230;SDS011;51813;40.666;16.602;2022-11-23T01:26:22;0.75;;;0.17;;
65230;SDS011;51813;40.666;16.602;2022-11-23T01:28:48;1.10;;;0.40;;
65230;SDS011;51813;40.666;16.602;2022-11-23T01:31:15;1.55;;;0.28;;
65230;SDS011;51813;40.666;16.602;2022-11-23T01:33:45;1.08;;;0.28;;
65230;SDS011;51813;40.666;16.602;2022-11-23T01:36:16;0.57;;;0.30;;
65230;SDS011;51813;40.666;16.602;2022-11-23T01:38:43;0.50;;;0.20;;
65230;SDS011;51813;40.666;16.602;2022-11-23T01:41:13;0.55;;;0.22;;
65230;SDS011;51813;40.666;16.602;2022-11-23T01:43:41;0.75;;;0.20;;
65230;SDS011;51813;40.666;16.602;2022-11-23T01:46:06;0.85;;;0.28;;
65230;SDS011;51813;40.666;16.602;2022-11-23T01:48:34;1.35;;;0.30;;
65230;SDS011;51813;40.666;16.602;2022-11-23T01:51:13;0.88;;;0.28;;
65230;SDS011;51813;40.666;16.602;2022-11-23T01:53:41;0.60;;;0.30;;
65230;SDS011;51813;40.666;16.602;2022-11-23T01:56:10;0.77;;;0.30;;
65230;SDS011;51813;40.666;16.602;2022-11-23T01:58:41;1.35;;;0.30;;
65230;SDS011;51813;40.666;16.602;2022-11-23T02:01:10;0.15;;;0.10;;
65230;SDS011;51813;40.666;16.602;2022-11-23T02:03:37;0.40;;;0.13;;
65230;SDS011;51813;40.666;16.602;2022-11-23T02:06:06;1.30;;;0.40;;
65230;SDS011;51813;40.666;16.602;2022-11-23T02:08:35;1.45;;;0.30;;
65230;SDS011;51813;40.666;16.602;2022-11-23T02:11:01;0.93;;;0.20;;
65230;SDS011;51813;40.666;16.602;2022-11-23T02:13:27;1.23;;;0.20;;
65230;SDS011;51813;40.666;16.602;2022-11-23T02:15:54;1.20;;;0.30;;
65230;SDS011;51813;40.666;16.602;2022-11-23T02:18:22;0.45;;;0.20;;
65230;SDS011;51813;40.666;16.602;2022-11-23T02:20:53;0.57;;;0.20;;
65230;SDS011;51813;40.666;16.602;2022-11-23T02:26:05;0.93;;;0.40;;
65230;SDS011;51813;40.666;16.602;2022-11-23T02:29:00;0.82;;;0.20;;
65230;SDS011;51813;40.666;16.602;2022-11-23T02:31:30;0.43;;;0.20;;
65230;SDS011;51813;40.666;16.602;2022-11-23T02:33:55;1.17;;;0.32;;
65230;SDS011;51813;40.666;16.602;2022-11-23T02:36:35;0.93;;;0.30;;
65230;SDS011;51813;40.666;16.602;2022-11-23T02:39:07;0.30;;;0.20;;
65230;SDS011;51813;40.666;16.602;2022-11-23T02:44:16;2.22;;;0.30;;
65230;SDS011;51813;40.666;16.602;2022-11-23T02:49:28;0.98;;;0.20;;
65230;SDS011;51813;40.666;16.602;2022-11-23T02:51:53;0.82;;;0.20;;
65230;SDS011;51813;40.666;16.602;2022-11-23T02:54:19;1.38;;;0.40;;
65230;SDS011;51813;40.666;16.602;2022-11-23T02:56:44;0.60;;;0.20;;
65230;SDS011;51813;40.666;16.602;2022-11-23T02:59:10;0.45;;;0.22;;
65230;SDS011;51813;40.666;16.602;2022-11-23T03:01:36;1.20;;;0.30;;
65230;SDS011;51813;40.666;16.602;2022-11-23T03:04:04;1.35;;;0.50;;
65230;SDS011;51813;40.666;16.602;2022-11-23T03:06:30;0.63;;;0.20;;
65230;SDS011;51813;40.666;16.602;2022-11-23T03:08:56;1.83;;;0.50;;
65230;SDS011;51813;40.666;16.602;2022-11-23T03:11:21;1.67;;;0.40;;
65230;SDS011;51813;40.666;16.602;2022-11-23T03:13:47;1.05;;;0.40;;
65230;SDS011;51813;40.666;16.602;2022-11-23T03:16:13;1.48;;;0.47;;
65230;SDS011;51813;40.666;16.602;2022-11-23T03:18:39;1.27;;;0.32;;
65230;SDS011;51813;40.666;16.602;2022-11-23T03:21:05;0.95;;;0.20;;
65230;SDS011;51813;40.666;16.602;2022-11-23T03:23:34;1.27;;;0.30;;
65230;SDS011;51813;40.666;16.602;2022-11-23T03:26:00;0.43;;;0.20;;
65230;SDS011;51813;40.666;16.602;2022-11-23T03:28:26;0.70;;;0.22;;
65230;SDS011;51813;40.666;16.602;2022-11-23T03:30:52;1.35;;;0.20;;
65230;SDS011;51813;40.666;16.602;2022-11-23T03:33:18;0.57;;;0.20;;
65230;SDS011;51813;40.666;16.602;2022-11-23T03:35:45;0.63;;;0.30;;
65230;SDS011;51813;40.666;16.602;2022-11-23T03:38:11;1.35;;;0.40;;
65230;SDS011;51813;40.666;16.602;2022-11-23T03:40:36;0.82;;;0.30;;
65230;SDS011;51813;40.666;16.602;2022-11-23T03:43:02;1.60;;;0.50;;
65230;SDS011;51813;40.666;16.602;2022-11-23T03:45:28;1.10;;;0.20;;
65230;SDS011;51813;40.666;16.602;2022-11-23T03:47:54;1.35;;;0.30;;
65230;SDS011;51813;40.666;16.602;2022-11-23T03:50:19;0.82;;;0.30;;
65230;SDS011;51813;40.666;16.602;2022-11-23T03:52:47;1.45;;;0.47;;
65230;SDS011;51813;40.666;16.602;2022-11-23T03:55:13;0.93;;;0.30;;
65230;SDS011;51813;40.666;16.602;2022-11-23T03:57:39;0.68;;;0.20;;
65230;SDS011;51813;40.666;16.602;2022-11-23T04:00:05;1.30;;;0.35;;
65230;SDS011;51813;40.666;16.602;2022-11-23T04:02:32;1.15;;;0.32;;
65230;SDS011;51813;40.666;16.602;2022-11-23T04:04:58;0.90;;;0.20;;
65230;SDS011;51813;40.666;16.602;2022-11-23T04:07:23;1.95;;;0.55;;
65230;SDS011;51813;40.666;16.602;2022-11-23T04:09:49;1.15;;;0.30;;
65230;SDS011;51813;40.666;16.602;2022-11-23T04:12:15;0.88;;;0.30;;
65230;SDS011;51813;40.666;16.602;2022-11-23T04:14:40;0.88;;;0.28;;
65230;SDS011;51813;40.666;16.602;2022-11-23T04:17:06;1.88;;;0.30;;
65230;SDS011;51813;40.666;16.602;2022-11-23T04:19:32;0.73;;;0.20;;
65230;SDS011;51813;40.666;16.602;2022-11-23T04:21:57;1.10;;;0.30;;
65230;SDS011;51813;40.666;16.602;2022-11-23T04:24:23;0.90;;;0.30;;
65230;SDS011;51813;40.666;16.602;2022-11-23T04:26:49;1.00;;;0.40;;
65230;SDS011;51813;40.666;16.602;2022-11-23T04:29:14;2.67;;;0.40;;
65230;SDS011;51813;40.666;16.602;2022-11-23T04:31:40;1.27;;;0.30;;
65230;SDS011;51813;40.666;16.602;2022-11-23T04:34:06;0.90;;;0.30;;
65230;SDS011;51813;40.666;16.602;2022-11-23T04:36:31;0.75;;;0.25;;
65230;SDS011;51813;40.666;16.602;2022-11-23T04:38:57;1.50;;;0.40;;
65230;SDS011;51813;40.666;16.602;2022-11-23T04:41:23;2.47;;;0.50;;
65230;SDS011;51813;40.666;16.602;2022-11-23T04:43:49;1.30;;;0.40;;
65230;SDS011;51813;40.666;16.602;2022-11-23T04:46:15;0.85;;;0.30;;
65230;SDS011;51813;40.666;16.602;2022-11-23T04:48:41;1.02;;;0.38;;
65230;SDS011;51813;40.666;16.602;2022-11-23T04:51:07;0.80;;;0.32;;
65230;SDS011;51813;40.666;16.602;2022-11-23T04:53:33;1.13;;;0.30;;
65230;SDS011;51813;40.666;16.602;2022-11-23T04:55:59;0.55;;;0.20;;
65230;SDS011;51813;40.666;16.602;2022-11-23T04:58:25;1.42;;;0.57;;
65230;SDS011;51813;40.666;16.602;2022-11-23T05:00:51;0.80;;;0.30;;
65230;SDS011;51813;40.666;16.602;2022-11-23T05:03:16;1.10;;;0.35;;
65230;SDS011;51813;40.666;16.602;2022-11-23T05:05:42;1.08;;;0.50;;
65230;SDS011;51813;40.666;16.602;2022-11-23T05:08:08;1.10;;;0.30;;
65230;SDS011;51813;40.666;16.602;2022-11-23T05:10:35;1.42;;;0.50;;
65230;SDS011;51813;40.666;16.602;2022-11-23T05:13:01;0.90;;;0.30;;
65230;SDS011;51813;40.666;16.602;2022-11-23T05:15:27;1.58;;;0.40;;
65230;SDS011;51813;40.666;16.602;2022-11-23T05:17:53;1.58;;;0.40;;
65230;SDS011;51813;40.666;16.602;2022-11-23T05:20:25;1.13;;;0.35;;
65230;SDS011;51813;40.666;16.602;2022-11-23T05:22:51;2.70;;;0.40;;
65230;SDS011;51813;40.666;16.602;2022-11-23T05:25:17;0.65;;;0.30;;
65230;SDS011;51813;40.666;16.602;2022-11-23T05:27:42;0.80;;;0.20;;
65230;SDS011;51813;40.666;16.602;2022-11-23T05:30:08;1.20;;;0.38;;
65230;SDS011;51813;40.666;16.602;2022-11-23T05:32:34;3.30;;;0.60;;
65230;SDS011;51813;40.666;16.602;2022-11-23T05:35:00;1.00;;;0.30;;
65230;SDS011;51813;40.666;16.602;2022-11-23T05:37:25;0.57;;;0.30;;
65230;SDS011;51813;40.666;16.602;2022-11-23T05:39:51;0.98;;;0.30;;
65230;SDS011;51813;40.666;16.602;2022-11-23T05:42:17;1.00;;;0.40;;
65230;SDS011;51813;40.666;16.602;2022-11-23T05:44:42;2.22;;;0.50;;
65230;SDS011;51813;40.666;16.602;2022-11-23T05:47:08;1.58;;;0.45;;
65230;SDS011;51813;40.666;16.602;2022-11-23T05:49:34;1.52;;;0.40;;
65230;SDS011;51813;40.666;16.602;2022-11-23T05:51:59;0.73;;;0.30;;
65230;SDS011;51813;40.666;16.602;2022-11-23T05:54:25;1.33;;;0.38;;
65230;SDS011;51813;40.666;16.602;2022-11-23T05:56:50;1.58;;;0.40;;
65230;SDS011;51813;40.666;16.602;2022-11-23T05:59:16;0.82;;;0.30;;
65230;SDS011;51813;40.666;16.602;2022-11-23T06:01:42;1.27;;;0.50;;
65230;SDS011;51813;40.666;16.602;2022-11-23T06:04:07;1.13;;;0.50;;
65230;SDS011;51813;40.666;16.602;2022-11-23T06:06:33;1.73;;;0.40;;
65230;SDS011;51813;40.666;16.602;2022-11-23T06:08:59;1.55;;;0.95;;
65230;SDS011;51813;40.666;16.602;2022-11-23T06:11:24;2.78;;;0.65;;
65230;SDS011;51813;40.666;16.602;2022-11-23T06:13:50;2.08;;;0.55;;
65230;SDS011;51813;40.666;16.602;2022-11-23T06:16:16;1.70;;;0.38;;
65230;SDS011;51813;40.666;16.602;2022-11-23T06:18:41;1.27;;;0.50;;
65230;SDS011;51813;40.666;16.602;2022-11-23T06:21:07;1.15;;;0.50;;
65230;SDS011;51813;40.666;16.602;2022-11-23T06:23:33;1.77;;;0.55;;
65230;SDS011;51813;40.666;16.602;2022-11-23T06:25:59;1.60;;;0.50;;
65230;SDS011;51813;40.666;16.602;2022-11-23T06:28:25;1.50;;;0.57;;
65230;SDS011;51813;40.666;16.602;2022-11-23T06:30:52;1.08;;;0.63;;
65230;SDS011;51813;40.666;16.602;2022-11-23T06:33:19;1.45;;;0.65;;
65230;SDS011;51813;40.666;16.602;2022-11-23T06:35:55;0.90;;;0.40;;
65230;SDS011;51813;40.666;16.602;2022-11-23T06:38:25;1.73;;;0.60;;
65230;SDS011;51813;40.666;16.602;2022-11-23T06:40:51;1.70;;;0.63;;
65230;SDS011;51813;40.666;16.602;2022-11-23T06:43:16;1.00;;;0.50;;
65230;SDS011;51813;40.666;16.602;2022-11-23T06:45:42;1.98;;;0.85;;
65230;SDS011;51813;40.666;16.602;2022-11-23T06:48:08;1.25;;;0.60;;
65230;SDS011;51813;40.666;16.602;2022-11-23T06:50:33;0.85;;;0.47;;
65230;SDS011;51813;40.666;16.602;2022-11-23T06:52:59;2.80;;;0.75;;
65230;SDS011;51813;40.666;16.602;2022-11-23T06:55:25;2.47;;;0.70;;
65230;SDS011;51813;40.666;16.602;2022-11-23T06:57:51;2.55;;;0.77;;
65230;SDS011;51813;40.666;16.602;2022-11-23T07:00:17;2.33;;;0.70;;
65230;SDS011;51813;40.666;16.602;2022-11-23T07:02:47;2.50;;;0.70;;
65230;SDS011;51813;40.666;16.602;2022-11-23T07:05:16;1.60;;;0.60;;
65230;SDS011;51813;40.666;16.602;2022-11-23T07:07:42;1.63;;;0.77;;
65230;SDS011;51813;40.666;16.602;2022-11-23T07:10:07;3.67;;;0.88;;
65230;SDS011;51813;40.666;16.602;2022-11-23T07:12:33;1.63;;;0.70;;
65230;SDS011;51813;40.666;16.602;2022-11-23T07:14:59;1.88;;;0.70;;
65230;SDS011;51813;40.666;16.602;2022-11-23T07:17:25;2.33;;;0.98;;
65230;SDS011;51813;40.666;16.602;2022-11-23T07:19:50;1.98;;;1.10;;
65230;SDS011;51813;40.666;16.602;2022-11-23T07:22:16;2.83;;;1.48;;
65230;SDS011;51813;40.666;16.602;2022-11-23T07:24:42;3.25;;;1.90;;
65230;SDS011;51813;40.666;16.602;2022-11-23T07:27:07;3.78;;;2.00;;
65230;SDS011;51813;40.666;16.602;2022-11-23T07:29:33;3.20;;;1.90;;
65230;SDS011;51813;40.666;16.602;2022-11-23T07:31:59;2.80;;;1.75;;
65230;SDS011;51813;40.666;16.602;2022-11-23T07:34:26;3.88;;;2.10;;
65230;SDS011;51813;40.666;16.602;2022-11-23T07:36:52;3.35;;;1.70;;
65230;SDS011;51813;40.666;16.602;2022-11-23T07:39:18;2.80;;;1.73;;
65230;SDS011;51813;40.666;16.602;2022-11-23T07:41:44;3.95;;;1.70;;
65230;SDS011;51813;40.666;16.602;2022-11-23T07:44:12;2.70;;;1.52;;
65230;SDS011;51813;40.666;16.602;2022-11-23T07:46:38;3.40;;;1.80;;
65230;SDS011;51813;40.666;16.602;2022-11-23T07:49:03;3.08;;;1.50;;
65230;SDS011;51813;40.666;16.602;2022-11-23T07:51:29;3.47;;;1.35;;
65230;SDS011;51813;40.666;16.602;2022-11-23T07:53:55;3.35;;;1.40;;
65230;SDS011;51813;40.666;16.602;2022-11-23T07:56:21;3.75;;;1.42;;
65230;SDS011;51813;40.666;16.602;2022-11-23T07:58:47;2.83;;;1.48;;
65230;SDS011;51813;40.666;16.602;2022-11-23T08:01:13;3.72;;;1.30;;
65230;SDS011;51813;40.666;16.602;2022-11-23T08:03:42;2.65;;;1.15;;
65230;SDS011;51813;40.666;16.602;2022-11-23T08:06:11;2.65;;;1.38;;
65230;SDS011;51813;40.666;16.602;2022-11-23T08:08:38;5.10;;;1.42;;
65230;SDS011;51813;40.666;16.602;2022-11-23T08:11:04;4.47;;;1.60;;
65230;SDS011;51813;40.666;16.602;2022-11-23T08:13:30;3.00;;;1.58;;
65230;SDS011;51813;40.666;16.602;2022-11-23T08:15:58;5.65;;;1.25;;
65230;SDS011;51813;40.666;16.602;2022-11-23T08:18:24;4.53;;;1.27;;
65230;SDS011;51813;40.666;16.602;2022-11-23T08:20:51;3.80;;;1.42;;
65230;SDS011;51813;40.666;16.602;2022-11-23T08:23:17;4.80;;;1.58;;
65230;SDS011;51813;40.666;16.602;2022-11-23T08:25:43;5.82;;;1.40;;
65230;SDS011;51813;40.666;16.602;2022-11-23T08:28:09;3.55;;;1.40;;
65230;SDS011;51813;40.666;16.602;2022-11-23T08:30:36;4.55;;;1.42;;
65230;SDS011;51813;40.666;16.602;2022-11-23T08:33:03;6.30;;;1.83;;
65230;SDS011;51813;40.666;16.602;2022-11-23T08:35:31;5.18;;;1.38;;
65230;SDS011;51813;40.666;16.602;2022-11-23T08:37:58;4.97;;;1.60;;
65230;SDS011;51813;40.666;16.602;2022-11-23T08:40:23;6.25;;;1.92;;
65230;SDS011;51813;40.666;16.602;2022-11-23T08:42:49;7.07;;;1.77;;
65230;SDS011;51813;40.666;16.602;2022-11-23T08:45:15;9.60;;;2.10;;
65230;SDS011;51813;40.666;16.602;2022-11-23T08:47:40;6.75;;;1.90;;
65230;SDS011;51813;40.666;16.602;2022-11-23T08:50:06;8.15;;;1.90;;
65230;SDS011;51813;40.666;16.602;2022-11-23T08:52:32;7.40;;;1.70;;
65230;SDS011;51813;40.666;16.602;2022-11-23T08:54:58;10.63;;;1.80;;
65230;SDS011;51813;40.666;16.602;2022-11-23T08:57:25;5.10;;;1.40;;
65230;SDS011;51813;40.666;16.602;2022-11-23T08:59:51;4.82;;;1.58;;
65230;SDS011;51813;40.666;16.602;2022-11-23T09:02:17;7.90;;;1.77;;
65230;SDS011;51813;40.666;16.602;2022-11-23T09:04:42;4.38;;;1.50;;
65230;SDS011;51813;40.666;16.602;2022-11-23T09:07:08;4.22;;;1.50;;
65230;SDS011;51813;40.666;16.602;2022-11-23T09:09:34;3.28;;;1.52;;
65230;SDS011;51813;40.666;16.602;2022-11-23T09:11:59;3.85;;;1.27;;
65230;SDS011;51813;40.666;16.602;2022-11-23T09:14:25;3.88;;;1.55;;
65230;SDS011;51813;40.666;16.602;2022-11-23T09:16:52;4.07;;;1.20;;
65230;SDS011;51813;40.666;16.602;2022-11-23T09:19:18;3.70;;;1.20;;
65230;SDS011;51813;40.666;16.602;2022-11-23T09:21:44;5.05;;;1.30;;
65230;SDS011;51813;40.666;16.602;2022-11-23T09:24:10;3.75;;;1.25;;
65230;SDS011;51813;40.666;16.602;2022-11-23T09:26:36;3.10;;;1.20;;
65230;SDS011;51813;40.666;16.602;2022-11-23T09:29:03;2.08;;;1.00;;
65230;SDS011;51813;40.666;16.602;2022-11-23T09:31:29;2.10;;;1.10;;
65230;SDS011;51813;40.666;16.602;2022-11-23T09:33:55;3.67;;;1.05;;
65230;SDS011;51813;40.666;16.602;2022-11-23T09:36:21;3.90;;;1.30;;
65230;SDS011;51813;40.666;16.602;2022-11-23T09:38:50;3.30;;;1.05;;
65230;SDS011;51813;40.666;16.602;2022-11-23T09:49:35;3.97;;;1.05;;
65230;SDS011;51813;40.666;16.602;2022-11-23T09:52:17;2.35;;;0.90;;
65230;SDS011;51813;40.666;16.602;2022-11-23T09:54:45;1.52;;;0.80;;
65230;SDS011;51813;40.666;16.602;2022-11-23T09:57:13;3.33;;;1.00;;
65230;SDS011;51813;40.666;16.602;2022-11-23T09:59:48;3.00;;;1.00;;
65230;SDS011;51813;40.666;16.602;2022-11-23T10:02:19;2.00;;;0.73;;
65230;SDS011;51813;40.666;16.602;2022-11-23T10:04:50;3.85;;;0.98;;
65230;SDS011;51813;40.666;16.602;2022-11-23T10:15:26;3.60;;;0.90;;
65230;SDS011;51813;40.666;16.602;2022-11-23T10:23:43;0.90;;;0.50;;
65230;SDS011;51813;40.666;16.602;2022-11-23T10:26:14;1.83;;;0.70;;
65230;SDS011;51813;40.666;16.602;2022-11-23T10:28:42;1.73;;;0.70;;
65230;SDS011;51813;40.666;16.602;2022-11-23T10:31:20;2.70;;;0.70;;
65230;SDS011;51813;40.666;16.602;2022-11-23T10:34:09;2.10;;;0.68;;
65230;SDS011;51813;40.666;16.602;2022-11-23T10:36:35;2.05;;;0.63;;
65230;SDS011;51813;40.666;16.602;2022-11-23T10:39:04;2.88;;;0.93;;
65230;SDS011;51813;40.666;16.602;2022-11-23T10:41:46;2.25;;;0.85;;
65230;SDS011;51813;40.666;16.602;2022-11-23T10:46:47;2.47;;;0.70;;
65230;SDS011;51813;40.666;16.602;2022-11-23T10:52:00;3.17;;;0.70;;
65230;SDS011;51813;40.666;16.602;2022-11-23T11:02:39;2.10;;;0.73;;
65230;SDS011;51813;40.666;16.602;2022-11-23T11:07:53;2.08;;;0.65;;
65230;SDS011;51813;40.666;16.602;2022-11-23T11:16:19;1.52;;;0.50;;
65230;SDS011;51813;40.666;16.602;2022-11-23T11:19:21;2.00;;;0.75;;
65230;SDS011;51813;40.666;16.602;2022-11-23T11:21:49;1.70;;;0.70;;
65230;SDS011;51813;40.666;16.602;2022-11-23T11:24:32;1.88;;;0.60;;
65230;SDS011;51813;40.666;16.602;2022-11-23T11:27:20;1.27;;;0.57;;
65230;SDS011;51813;40.666;16.602;2022-11-23T11:29:47;2.03;;;0.50;;
65230;SDS011;51813;40.666;16.602;2022-11-23T11:32:30;1.33;;;0.43;;
65230;SDS011;51813;40.666;16.602;2022-11-23T11:35:13;1.60;;;0.50;;
65230;SDS011;51813;40.666;16.602;2022-11-23T11:38:02;1.95;;;0.80;;
65230;SDS011;51813;40.666;16.602;2022-11-23T11:40:47;2.35;;;0.85;;
65230;SDS011;51813;40.666;16.602;2022-11-23T11:45:59;1.77;;;0.65;;
65230;SDS011;51813;40.666;16.602;2022-11-23T11:51:05;2.50;;;0.73;;
65230;SDS011;51813;40.666;16.602;2022-11-23T11:56:38;1.50;;;0.60;;
65230;SDS011;51813;40.666;16.602;2022-11-23T11:59:27;1.73;;;0.60;;
65230;SDS011;51813;40.666;16.602;2022-11-23T12:04:49;2.75;;;0.65;;
65230;SDS011;51813;40.666;16.602;2022-11-23T12:07:49;1.80;;;0.65;;
65230;SDS011;51813;40.666;16.602;2022-11-23T12:10:31;2.03;;;0.70;;
65230;SDS011;51813;40.666;16.602;2022-11-23T12:13:09;2.38;;;0.80;;
65230;SDS011;51813;40.666;16.602;2022-11-23T12:15:55;2.45;;;0.73;;
65230;SDS011;51813;40.666;16.602;2022-11-23T12:27:47;2.28;;;0.50;;
65230;SDS011;51813;40.666;16.602;2022-11-23T12:30:25;2.17;;;0.60;;
65230;SDS011;51813;40.666;16.602;2022-11-23T12:43:20;3.55;;;0.90;;
65230;SDS011;51813;40.666;16.602;2022-11-23T12:46:57;2.75;;;0.90;;
65230;SDS011;51813;40.666;16.602;2022-11-23T12:49:17;2.67;;;1.05;;
65230;SDS011;51813;40.666;16.602;2022-11-23T12:52:35;3.38;;;0.80;;
65230;SDS011;51813;40.666;16.602;2022-11-23T12:55:20;1.75;;;0.70;;
65230;SDS011;51813;40.666;16.602;2022-11-23T12:58:12;2.15;;;0.70;;
65230;SDS011;51813;40.666;16.602;2022-11-23T13:00:52;1.52;;;0.60;;
65230;SDS011;51813;40.666;16.602;2022-11-23T13:03:46;1.23;;;0.60;;
65230;SDS011;51813;40.666;16.602;2022-11-23T13:23:10;4.50;;;0.80;;
65230;SDS011;51813;40.666;16.602;2022-11-23T13:25:35;1.55;;;0.80;;
65230;SDS011;51813;40.666;16.602;2022-11-23T13:28:25;2.20;;;0.60;;
65230;SDS011;51813;40.666;16.602;2022-11-23T13:33:39;1.42;;;0.70;;
65230;SDS011;51813;40.666;16.602;2022-11-23T13:36:10;1.77;;;0.80;;
65230;SDS011;51813;40.666;16.602;2022-11-23T13:38:58;1.48;;;0.70;;
65230;SDS011;51813;40.666;16.602;2022-11-23T13:44:16;1.10;;;0.60;;
65230;SDS011;51813;40.666;16.602;2022-11-23T13:49:28;1.45;;;0.70;;
65230;SDS011;51813;40.666;16.602;2022-11-23T13:54:54;2.17;;;0.95;;
65230;SDS011;51813;40.666;16.602;2022-11-23T13:57:30;2.35;;;0.63;;
65230;SDS011;51813;40.666;16.602;2022-11-23T14:06:03;2.63;;;0.75;;
65230;SDS011;51813;40.666;16.602;2022-11-23T14:08:34;1.50;;;0.70;;
65230;SDS011;51813;40.666;16.602;2022-11-23T14:11:10;1.20;;;0.65;;
65230;SDS011;51813;40.666;16.602;2022-11-23T14:13:38;1.48;;;0.70;;
65230;SDS011;51813;40.666;16.602;2022-11-23T14:16:08;1.75;;;0.80;;
65230;SDS011;51813;40.666;16.602;2022-11-23T14:24:28;1.45;;;0.70;;
65230;SDS011;51813;40.666;16.602;2022-11-23T14:30:21;1.65;;;0.75;;
65230;SDS011;51813;40.666;16.602;2022-11-23T14:33:19;2.47;;;0.85;;
65230;SDS011;51813;40.666;16.602;2022-11-23T14:41:40;1.38;;;0.60;;
65230;SDS011;51813;40.666;16.602;2022-11-23T14:44:07;1.77;;;0.80;;
65230;SDS011;51813;40.666;16.602;2022-11-23T14:49:23;1.73;;;0.80;;
65230;SDS011;51813;40.666;16.602;2022-11-23T14:51:48;2.47;;;0.85;;
65230;SDS011;51813;40.666;16.602;2022-11-23T14:54:14;1.30;;;0.80;;
65230;SDS011;51813;40.666;16.602;2022-11-23T14:56:41;3.03;;;0.90;;
65230;SDS011;51813;40.666;16.602;2022-11-23T15:01:55;1.73;;;0.82;;
65230;SDS011;51813;40.666;16.602;2022-11-23T15:04:27;1.15;;;0.80;;
65230;SDS011;51813;40.666;16.602;2022-11-23T15:07:02;1.85;;;0.98;;
65230;SDS011;51813;40.666;16.602;2022-11-23T15:12:25;2.47;;;0.95;;
65230;SDS011;51813;40.666;16.602;2022-11-23T15:14:52;2.20;;;1.05;;
65230;SDS011;51813;40.666;16.602;2022-11-23T15:17:21;2.65;;;1.02;;
65230;SDS011;51813;40.666;16.602;2022-11-23T15:19:55;2.47;;;1.10;;
65230;SDS011;51813;40.666;16.602;2022-11-23T15:22:24;2.42;;;1.00;;
65230;SDS011;51813;40.666;16.602;2022-11-23T15:24:52;1.83;;;0.90;;
65230;SDS011;51813;40.666;16.602;2022-11-23T15:27:27;2.30;;;0.98;;
65230;SDS011;51813;40.666;16.602;2022-11-23T15:29:56;1.83;;;0.85;;
65230;SDS011;51813;40.666;16.602;2022-11-23T15:32:30;2.30;;;1.13;;
65230;SDS011;51813;40.666;16.602;2022-11-23T15:34:59;2.00;;;1.00;;
65230;SDS011;51813;40.666;16.602;2022-11-23T15:37:30;1.83;;;0.90;;
65230;SDS011;51813;40.666;16.602;2022-11-23T15:40:11;1.92;;;1.05;;
65230;SDS011;51813;40.666;16.602;2022-11-23T15:42:41;2.72;;;1.00;;
65230;SDS011;51813;40.666;16.602;2022-11-23T15:50:27;2.33;;;1.10;;
65230;SDS011;51813;40.666;16.602;2022-11-23T15:52:52;3.25;;;1.20;;
65230;SDS011;51813;40.666;16.602;2022-11-23T15:55:18;2.50;;;1.10;;
65230;SDS011;51813;40.666;16.602;2022-11-23T15:57:50;2.92;;;1.00;;
65230;SDS011;51813;40.666;16.602;2022-11-23T16:00:21;2.95;;;1.20;;
65230;SDS011;51813;40.666;16.602;2022-11-23T16:02:49;1.85;;;1.10;;
65230;SDS011;51813;40.666;16.602;2022-11-23T16:05:17;4.18;;;1.70;;
65230;SDS011;51813;40.666;16.602;2022-11-23T16:07:54;3.70;;;1.70;;
65230;SDS011;51813;40.666;16.602;2022-11-23T16:12:50;3.47;;;1.35;;
65230;SDS011;51813;40.666;16.602;2022-11-23T16:20:58;3.42;;;1.48;;
65230;SDS011;51813;40.666;16.602;2022-11-23T16:23:27;2.65;;;1.40;;
65230;SDS011;51813;40.666;16.602;2022-11-23T16:26:05;4.10;;;1.60;;
65230;SDS011;51813;40.666;16.602;2022-11-23T16:28:34;2.88;;;1.70;;
65230;SDS011;51813;40.666;16.602;2022-11-23T16:31:02;2.72;;;1.27;;
65230;SDS011;51813;40.666;16.602;2022-11-23T16:33:28;3.00;;;1.33;;
65230;SDS011;51813;40.666;16.602;2022-11-23T16:35:58;2.55;;;1.40;;
65230;SDS011;51813;40.666;16.602;2022-11-23T16:38:23;3.40;;;1.70;;
65230;SDS011;51813;40.666;16.602;2022-11-23T16:40:49;3.53;;;1.48;;
65230;SDS011;51813;40.666;16.602;2022-11-23T16:43:15;3.15;;;1.58;;
65230;SDS011;51813;40.666;16.602;2022-11-23T16:45:45;3.17;;;1.50;;
65230;SDS011;51813;40.666;16.602;2022-11-23T16:50:50;3.08;;;1.50;;
65230;SDS011;51813;40.666;16.602;2022-11-23T16:53:17;2.83;;;1.50;;
65230;SDS011;51813;40.666;16.602;2022-11-23T16:55:53;2.67;;;1.50;;
65230;SDS011;51813;40.666;16.602;2022-11-23T16:58:20;2.50;;;1.40;;
65230;SDS011;51813;40.666;16.602;2022-11-23T17:00:47;2.35;;;1.30;;
65230;SDS011;51813;40.666;16.602;2022-11-23T17:03:18;3.35;;;1.33;;
65230;SDS011;51813;40.666;16.602;2022-11-23T17:05:45;2.72;;;1.35;;
65230;SDS011;51813;40.666;16.602;2022-11-23T17:08:11;2.22;;;1.15;;
65230;SDS011;51813;40.666;16.602;2022-11-23T17:10:37;3.88;;;1.42;;
65230;SDS011;51813;40.666;16.602;2022-11-23T17:13:05;2.05;;;1.30;;
65230;SDS011;51813;40.666;16.602;2022-11-23T17:15:36;3.35;;;1.35;;
65230;SDS011;51813;40.666;16.602;2022-11-23T17:18:02;2.53;;;1.30;;
65230;SDS011;51813;40.666;16.602;2022-11-23T17:20:28;3.45;;;1.30;;